sensor_id;sensor_type;location;lat;lon;timestamp;P1;durP1;ratioP1;P2;durP2;ratioP2
44169;SDS011;29836;52.286;9.576;2023-02-01T00:01:53;13.82;;;2.72;;
44169;SDS011;29836;52.286;9.576;2023-02-01T00:04:19;16.92;;;2.10;;
44169;SDS011;29836;52.286;9.576;2023-02-01T00:06:45;9.43;;;2.40;;
44169;SDS011;29836;52.286;9.576;2023-02-01T00:09:10;8.07;;;2.13;;
44169;SDS011;29836;52.286;9.576;2023-02-01T00:11:36;9.32;;;2.20;;
44169;SDS011;29836;52.286;9.576;2023-02-01T00:14:02;14.73;;;2.65;;
44169;SDS011;29836;52.286;9.576;2023-02-01T00:16:29;8.98;;;2.10;;
44169;SDS011;29836;52.286;9.576;2023-02-01T00:18:59;11.90;;;1.58;;
44169;SDS011;29836;52.286;9.576;2023-02-01T00:21:28;6.75;;;2.67;;
44169;SDS011;29836;52.286;9.576;2023-02-01T00:23:55;9.35;;;2.47;;
44169;SDS011;29836;52.286;9.576;2023-02-01T00:28:57;11.75;;;2.17;;
44169;SDS011;29836;52.286;9.576;2023-02-01T00:31:22;7.78;;;1.45;;
44169;SDS011;29836;52.286;9.576;2023-02-01T00:33:48;7.63;;;2.15;;
44169;SDS011;29836;52.286;9.576;2023-02-01T00:36:14;7.70;;;2.25;;
44169;SDS011;29836;52.286;9.576;2023-02-01T00:38:39;12.32;;;3.17;;
44169;SDS011;29836;52.286;9.576;2023-02-01T00:41:12;8.27;;;2.08;;
44169;SDS011;29836;52.286;9.576;2023-02-01T00:43:40;10.35;;;2.10;;
44169;SDS011;29836;52.286;9.576;2023-02-01T00:46:06;17.33;;;1.88;;
44169;SDS011;29836;52.286;9.576;2023-02-01T00:48:31;17.85;;;2.97;;
44169;SDS011;29836;52.286;9.576;2023-02-01T00:51:01;10.18;;;2.47;;
44169;SDS011;29836;52.286;9.576;2023-02-01T00:53:28;10.23;;;3.08;;
44169;SDS011;29836;52.286;9.576;2023-02-01T00:55:53;8.23;;;2.17;;
44169;SDS011;29836;52.286;9.576;2023-02-01T00:58:19;12.50;;;2.13;;
44169;SDS011;29836;52.286;9.576;2023-02-01T01:00:44;8.52;;;1.60;;
44169;SDS011;29836;52.286;9.576;2023-02-01T01:03:11;5.35;;;2.38;;
44169;SDS011;29836;52.286;9.576;2023-02-01T01:05:48;10.77;;;1.75;;
44169;SDS011;29836;52.286;9.576;2023-02-01T01:08:15;11.13;;;2.45;;
44169;SDS011;29836;52.286;9.576;2023-02-01T01:10:41;12.15;;;2.50;;
44169;SDS011;29836;52.286;9.576;2023-02-01T01:13:07;7.93;;;2.38;;
44169;SDS011;29836;52.286;9.576;2023-02-01T01:15:37;8.77;;;3.13;;
44169;SDS011;29836;52.286;9.576;2023-02-01T01:18:03;12.40;;;2.70;;
44169;SDS011;29836;52.286;9.576;2023-02-01T01:20:29;9.30;;;2.33;;
44169;SDS011;29836;52.286;9.576;2023-02-01T01:29:39;8.50;;;2.28;;
44169;SDS011;29836;52.286;9.576;2023-02-01T01:32:04;15.27;;;3.25;;
44169;SDS011;29836;52.286;9.576;2023-02-01T01:34:30;9.32;;;2.30;;
44169;SDS011;29836;52.286;9.576;2023-02-01T01:36:55;8.57;;;2.35;;
44169;SDS011;29836;52.286;9.576;2023-02-01T01:39:21;11.93;;;2.90;;
44169;SDS011;29836;52.286;9.576;2023-02-01T01:41:46;16.30;;;2.80;;
44169;SDS011;29836;52.286;9.576;2023-02-01T01:47:41;13.05;;;2.33;;
44169;SDS011;29836;52.286;9.576;2023-02-01T01:50:14;10.75;;;2.47;;
44169;SDS011;29836;52.286;9.576;2023-02-01T01:52:45;7.10;;;2.63;;
44169;SDS011;29836;52.286;9.576;2023-02-01T01:55:13;9.27;;;1.90;;
44169;SDS011;29836;52.286;9.576;2023-02-01T01:57:42;13.98;;;2.22;;
44169;SDS011;29836;52.286;9.576;2023-02-01T02:00:13;11.38;;;2.50;;
44169;SDS011;29836;52.286;9.576;2023-02-01T02:02:42;9.05;;;2.63;;
44169;SDS011;29836;52.286;9.576;2023-02-01T02:05:11;14.63;;;2.05;;
44169;SDS011;29836;52.286;9.576;2023-02-01T02:07:42;7.20;;;1.83;;
44169;SDS011;29836;52.286;9.576;2023-02-01T02:12:41;8.45;;;1.60;;
44169;SDS011;29836;52.286;9.576;2023-02-01T02:15:09;6.22;;;1.52;;
44169;SDS011;29836;52.286;9.576;2023-02-01T02:34:15;4.90;;;2.05;;
44169;SDS011;29836;52.286;9.576;2023-02-01T02:37:15;15.02;;;3.28;;
44169;SDS011;29836;52.286;9.576;2023-02-01T02:39:57;11.23;;;2.42;;
44169;SDS011;29836;52.286;9.576;2023-02-01T02:45:50;4.28;;;1.70;;
44169;SDS011;29836;52.286;9.576;2023-02-01T02:51:14;9.88;;;2.13;;
44169;SDS011;29836;52.286;9.576;2023-02-01T02:54:10;11.82;;;2.00;;
44169;SDS011;29836;52.286;9.576;2023-02-01T02:57:00;12.88;;;2.92;;
44169;SDS011;29836;52.286;9.576;2023-02-01T02:59:49;9.02;;;1.92;;
44169;SDS011;29836;52.286;9.576;2023-02-01T03:02:36;9.40;;;1.98;;
44169;SDS011;29836;52.286;9.576;2023-02-01T03:05:21;11.05;;;2.25;;
44169;SDS011;29836;52.286;9.576;2023-02-01T03:07:54;8.93;;;2.05;;
44169;SDS011;29836;52.286;9.576;2023-02-01T03:10:59;13.27;;;3.08;;
44169;SDS011;29836;52.286;9.576;2023-02-01T03:13:36;8.60;;;2.20;;
44169;SDS011;29836;52.286;9.576;2023-02-01T03:18:59;8.40;;;2.28;;
44169;SDS011;29836;52.286;9.576;2023-02-01T03:23:51;9.18;;;2.50;;
44169;SDS011;29836;52.286;9.576;2023-02-01T03:26:20;4.78;;;2.08;;
44169;SDS011;29836;52.286;9.576;2023-02-01T03:28:54;12.02;;;2.58;;
44169;SDS011;29836;52.286;9.576;2023-02-01T03:31:22;11.82;;;2.70;;
44169;SDS011;29836;52.286;9.576;2023-02-01T03:33:48;13.15;;;2.42;;
44169;SDS011;29836;52.286;9.576;2023-02-01T03:36:17;17.20;;;2.33;;
44169;SDS011;29836;52.286;9.576;2023-02-01T03:39:03;15.63;;;2.60;;
44169;SDS011;29836;52.286;9.576;2023-02-01T03:41:34;14.73;;;3.00;;
44169;SDS011;29836;52.286;9.576;2023-02-01T03:46:53;14.25;;;3.38;;
44169;SDS011;29836;52.286;9.576;2023-02-01T03:49:45;11.43;;;2.47;;
44169;SDS011;29836;52.286;9.576;2023-02-01T03:52:20;9.75;;;2.55;;
44169;SDS011;29836;52.286;9.576;2023-02-01T03:54:50;8.57;;;3.15;;
44169;SDS011;29836;52.286;9.576;2023-02-01T03:57:18;4.68;;;1.95;;
44169;SDS011;29836;52.286;9.576;2023-02-01T03:59:48;16.40;;;3.97;;
44169;SDS011;29836;52.286;9.576;2023-02-01T04:02:14;8.27;;;2.58;;
44169;SDS011;29836;52.286;9.576;2023-02-01T04:04:40;7.13;;;2.58;;
44169;SDS011;29836;52.286;9.576;2023-02-01T04:07:06;6.68;;;2.10;;
44169;SDS011;29836;52.286;9.576;2023-02-01T04:09:31;13.43;;;2.50;;
44169;SDS011;29836;52.286;9.576;2023-02-01T04:11:57;10.15;;;3.38;;
44169;SDS011;29836;52.286;9.576;2023-02-01T04:14:22;19.08;;;3.08;;
44169;SDS011;29836;52.286;9.576;2023-02-01T04:16:48;15.90;;;3.65;;
44169;SDS011;29836;52.286;9.576;2023-02-01T04:19:14;8.48;;;3.38;;
44169;SDS011;29836;52.286;9.576;2023-02-01T04:21:39;11.55;;;3.08;;
44169;SDS011;29836;52.286;9.576;2023-02-01T04:24:05;11.30;;;2.85;;
44169;SDS011;29836;52.286;9.576;2023-02-01T04:26:31;7.72;;;2.63;;
44169;SDS011;29836;52.286;9.576;2023-02-01T04:28:56;8.70;;;2.38;;
44169;SDS011;29836;52.286;9.576;2023-02-01T04:31:22;11.00;;;3.67;;
44169;SDS011;29836;52.286;9.576;2023-02-01T04:33:50;17.73;;;3.78;;
44169;SDS011;29836;52.286;9.576;2023-02-01T04:36:22;7.22;;;2.67;;
44169;SDS011;29836;52.286;9.576;2023-02-01T04:38:49;15.13;;;3.05;;
44169;SDS011;29836;52.286;9.576;2023-02-01T04:41:15;9.23;;;3.13;;
44169;SDS011;29836;52.286;9.576;2023-02-01T04:43:43;15.10;;;2.17;;
44169;SDS011;29836;52.286;9.576;2023-02-01T04:46:12;5.82;;;2.20;;
44169;SDS011;29836;52.286;9.576;2023-02-01T04:48:38;10.10;;;2.65;;
44169;SDS011;29836;52.286;9.576;2023-02-01T04:51:03;12.88;;;3.13;;
44169;SDS011;29836;52.286;9.576;2023-02-01T04:53:29;9.35;;;2.47;;
44169;SDS011;29836;52.286;9.576;2023-02-01T04:55:55;17.52;;;3.20;;
44169;SDS011;29836;52.286;9.576;2023-02-01T04:58:20;15.60;;;4.57;;
44169;SDS011;29836;52.286;9.576;2023-02-01T05:00:46;14.35;;;3.22;;
44169;SDS011;29836;52.286;9.576;2023-02-01T05:03:12;8.65;;;2.85;;
44169;SDS011;29836;52.286;9.576;2023-02-01T05:05:38;7.78;;;2.53;;
44169;SDS011;29836;52.286;9.576;2023-02-01T05:08:04;9.90;;;4.03;;
44169;SDS011;29836;52.286;9.576;2023-02-01T05:10:29;15.10;;;4.07;;
44169;SDS011;29836;52.286;9.576;2023-02-01T05:12:55;12.80;;;2.97;;
44169;SDS011;29836;52.286;9.576;2023-02-01T05:15:39;9.80;;;3.30;;
44169;SDS011;29836;52.286;9.576;2023-02-01T05:18:04;6.15;;;2.63;;
44169;SDS011;29836;52.286;9.576;2023-02-01T05:20:30;11.82;;;2.97;;
44169;SDS011;29836;52.286;9.576;2023-02-01T05:22:55;16.27;;;3.88;;
44169;SDS011;29836;52.286;9.576;2023-02-01T05:25:21;6.22;;;2.45;;
44169;SDS011;29836;52.286;9.576;2023-02-01T05:27:46;13.43;;;2.88;;
44169;SDS011;29836;52.286;9.576;2023-02-01T05:30:12;10.82;;;3.15;;
44169;SDS011;29836;52.286;9.576;2023-02-01T05:32:38;11.68;;;3.25;;
44169;SDS011;29836;52.286;9.576;2023-02-01T05:35:03;7.47;;;1.83;;
44169;SDS011;29836;52.286;9.576;2023-02-01T05:37:29;8.57;;;3.42;;
44169;SDS011;29836;52.286;9.576;2023-02-01T05:39:55;9.18;;;2.63;;
44169;SDS011;29836;52.286;9.576;2023-02-01T05:42:20;8.85;;;3.28;;
44169;SDS011;29836;52.286;9.576;2023-02-01T05:44:46;6.53;;;1.98;;
44169;SDS011;29836;52.286;9.576;2023-02-01T05:47:11;11.43;;;2.53;;
44169;SDS011;29836;52.286;9.576;2023-02-01T05:49:37;11.25;;;3.45;;
44169;SDS011;29836;52.286;9.576;2023-02-01T05:52:03;8.23;;;2.05;;
44169;SDS011;29836;52.286;9.576;2023-02-01T05:54:28;7.47;;;2.30;;
44169;SDS011;29836;52.286;9.576;2023-02-01T05:56:54;5.95;;;2.47;;
44169;SDS011;29836;52.286;9.576;2023-02-01T05:59:20;8.93;;;3.03;;
44169;SDS011;29836;52.286;9.576;2023-02-01T06:01:45;18.35;;;3.13;;
44169;SDS011;29836;52.286;9.576;2023-02-01T06:04:11;10.60;;;2.15;;
44169;SDS011;29836;52.286;9.576;2023-02-01T06:06:36;9.02;;;2.75;;
44169;SDS011;29836;52.286;9.576;2023-02-01T06:09:02;16.33;;;3.33;;
44169;SDS011;29836;52.286;9.576;2023-02-01T06:11:28;6.72;;;2.47;;
44169;SDS011;29836;52.286;9.576;2023-02-01T06:13:53;13.60;;;2.95;;
44169;SDS011;29836;52.286;9.576;2023-02-01T06:16:20;4.70;;;1.73;;
44169;SDS011;29836;52.286;9.576;2023-02-01T06:18:46;11.43;;;2.70;;
44169;SDS011;29836;52.286;9.576;2023-02-01T06:21:11;12.13;;;2.72;;
44169;SDS011;29836;52.286;9.576;2023-02-01T06:23:39;12.27;;;2.92;;
44169;SDS011;29836;52.286;9.576;2023-02-01T06:26:05;10.75;;;1.98;;
44169;SDS011;29836;52.286;9.576;2023-02-01T06:28:33;9.70;;;2.47;;
44169;SDS011;29836;52.286;9.576;2023-02-01T06:31:05;3.03;;;2.25;;
44169;SDS011;29836;52.286;9.576;2023-02-01T06:33:35;4.03;;;1.55;;
44169;SDS011;29836;52.286;9.576;2023-02-01T06:36:02;6.13;;;1.58;;
44169;SDS011;29836;52.286;9.576;2023-02-01T06:38:29;6.68;;;1.98;;
44169;SDS011;29836;52.286;9.576;2023-02-01T06:40:56;10.18;;;3.40;;
44169;SDS011;29836;52.286;9.576;2023-02-01T06:43:22;5.80;;;2.15;;
44169;SDS011;29836;52.286;9.576;2023-02-01T06:45:50;13.70;;;2.60;;
44169;SDS011;29836;52.286;9.576;2023-02-01T06:48:16;8.60;;;2.58;;
44169;SDS011;29836;52.286;9.576;2023-02-01T06:50:41;10.75;;;1.92;;
44169;SDS011;29836;52.286;9.576;2023-02-01T06:53:07;5.75;;;2.15;;
44169;SDS011;29836;52.286;9.576;2023-02-01T06:55:32;7.75;;;2.95;;
44169;SDS011;29836;52.286;9.576;2023-02-01T06:57:58;8.85;;;2.33;;
44169;SDS011;29836;52.286;9.576;2023-02-01T07:00:24;11.82;;;2.35;;
44169;SDS011;29836;52.286;9.576;2023-02-01T07:02:50;7.35;;;2.40;;
44169;SDS011;29836;52.286;9.576;2023-02-01T07:05:16;6.20;;;1.98;;
44169;SDS011;29836;52.286;9.576;2023-02-01T07:07:42;7.05;;;3.03;;
44169;SDS011;29836;52.286;9.576;2023-02-01T07:10:08;7.03;;;2.58;;
44169;SDS011;29836;52.286;9.576;2023-02-01T07:12:34;12.15;;;3.22;;
44169;SDS011;29836;52.286;9.576;2023-02-01T07:15:00;7.13;;;2.35;;
44169;SDS011;29836;52.286;9.576;2023-02-01T07:17:27;9.35;;;2.90;;
44169;SDS011;29836;52.286;9.576;2023-02-01T07:19:54;6.55;;;2.75;;
44169;SDS011;29836;52.286;9.576;2023-02-01T07:22:20;8.68;;;2.85;;
44169;SDS011;29836;52.286;9.576;2023-02-01T07:24:45;8.90;;;1.98;;
44169;SDS011;29836;52.286;9.576;2023-02-01T07:27:11;6.60;;;2.83;;
44169;SDS011;29836;52.286;9.576;2023-02-01T07:29:37;9.82;;;3.20;;
44169;SDS011;29836;52.286;9.576;2023-02-01T07:32:02;16.25;;;2.58;;
44169;SDS011;29836;52.286;9.576;2023-02-01T07:34:28;11.77;;;2.92;;
44169;SDS011;29836;52.286;9.576;2023-02-01T07:36:55;17.90;;;2.83;;
44169;SDS011;29836;52.286;9.576;2023-02-01T07:39:21;7.07;;;2.60;;
44169;SDS011;29836;52.286;9.576;2023-02-01T07:41:46;12.73;;;3.25;;
44169;SDS011;29836;52.286;9.576;2023-02-01T07:44:12;10.55;;;2.42;;
44169;SDS011;29836;52.286;9.576;2023-02-01T07:46:38;5.63;;;2.75;;
44169;SDS011;29836;52.286;9.576;2023-02-01T07:49:04;7.03;;;2.35;;
44169;SDS011;29836;52.286;9.576;2023-02-01T07:51:30;14.35;;;3.13;;
44169;SDS011;29836;52.286;9.576;2023-02-01T07:53:56;7.63;;;2.85;;
44169;SDS011;29836;52.286;9.576;2023-02-01T07:56:21;11.70;;;2.92;;
44169;SDS011;29836;52.286;9.576;2023-02-01T07:58:50;15.00;;;3.75;;
44169;SDS011;29836;52.286;9.576;2023-02-01T08:01:19;9.73;;;2.75;;
44169;SDS011;29836;52.286;9.576;2023-02-01T08:03:50;5.90;;;2.30;;
44169;SDS011;29836;52.286;9.576;2023-02-01T08:06:20;9.13;;;2.13;;
44169;SDS011;29836;52.286;9.576;2023-02-01T08:08:47;5.75;;;2.78;;
44169;SDS011;29836;52.286;9.576;2023-02-01T08:11:14;7.90;;;2.28;;
44169;SDS011;29836;52.286;9.576;2023-02-01T08:13:41;6.40;;;1.98;;
44169;SDS011;29836;52.286;9.576;2023-02-01T08:16:07;6.22;;;1.88;;
44169;SDS011;29836;52.286;9.576;2023-02-01T08:18:35;12.00;;;2.25;;
44169;SDS011;29836;52.286;9.576;2023-02-01T08:21:09;7.20;;;2.10;;
44169;SDS011;29836;52.286;9.576;2023-02-01T08:23:37;5.15;;;1.58;;
44169;SDS011;29836;52.286;9.576;2023-02-01T08:28:38;15.40;;;2.65;;
44169;SDS011;29836;52.286;9.576;2023-02-01T08:31:05;7.13;;;2.05;;
44169;SDS011;29836;52.286;9.576;2023-02-01T08:33:35;7.57;;;2.20;;
44169;SDS011;29836;52.286;9.576;2023-02-01T08:36:04;4.90;;;1.73;;
44169;SDS011;29836;52.286;9.576;2023-02-01T08:38:30;11.20;;;2.42;;
44169;SDS011;29836;52.286;9.576;2023-02-01T08:40:56;4.90;;;1.55;;
44169;SDS011;29836;52.286;9.576;2023-02-01T08:43:22;8.57;;;2.08;;
44169;SDS011;29836;52.286;9.576;2023-02-01T08:45:48;17.13;;;3.17;;
44169;SDS011;29836;52.286;9.576;2023-02-01T08:48:14;7.75;;;1.63;;
44169;SDS011;29836;52.286;9.576;2023-02-01T08:50:40;7.82;;;2.40;;
44169;SDS011;29836;52.286;9.576;2023-02-01T08:53:06;6.13;;;1.58;;
44169;SDS011;29836;52.286;9.576;2023-02-01T08:55:31;6.07;;;1.83;;
44169;SDS011;29836;52.286;9.576;2023-02-01T08:57:57;6.72;;;1.83;;
44169;SDS011;29836;52.286;9.576;2023-02-01T09:00:22;4.55;;;1.48;;
44169;SDS011;29836;52.286;9.576;2023-02-01T09:02:48;14.15;;;1.90;;
44169;SDS011;29836;52.286;9.576;2023-02-01T09:05:13;7.82;;;1.65;;
44169;SDS011;29836;52.286;9.576;2023-02-01T09:07:41;8.15;;;1.67;;
44169;SDS011;29836;52.286;9.576;2023-02-01T09:10:07;6.50;;;2.00;;
44169;SDS011;29836;52.286;9.576;2023-02-01T09:12:34;7.03;;;1.75;;
44169;SDS011;29836;52.286;9.576;2023-02-01T09:14:59;17.02;;;2.58;;
44169;SDS011;29836;52.286;9.576;2023-02-01T09:17:26;6.32;;;2.03;;
44169;SDS011;29836;52.286;9.576;2023-02-01T09:19:52;12.32;;;2.67;;
44169;SDS011;29836;52.286;9.576;2023-02-01T09:22:18;7.70;;;2.08;;
44169;SDS011;29836;52.286;9.576;2023-02-01T09:24:44;8.02;;;2.13;;
44169;SDS011;29836;52.286;9.576;2023-02-01T09:27:10;5.85;;;2.00;;
44169;SDS011;29836;52.286;9.576;2023-02-01T09:32:27;6.03;;;1.15;;
44169;SDS011;29836;52.286;9.576;2023-02-01T09:34:53;6.80;;;1.75;;
44169;SDS011;29836;52.286;9.576;2023-02-01T09:37:19;5.38;;;2.00;;
44169;SDS011;29836;52.286;9.576;2023-02-01T09:39:45;10.27;;;1.90;;
44169;SDS011;29836;52.286;9.576;2023-02-01T09:45:31;7.85;;;1.80;;
44169;SDS011;29836;52.286;9.576;2023-02-01T09:48:17;5.15;;;2.00;;
44169;SDS011;29836;52.286;9.576;2023-02-01T09:50:51;9.38;;;1.63;;
44169;SDS011;29836;52.286;9.576;2023-02-01T09:53:32;5.68;;;1.42;;
44169;SDS011;29836;52.286;9.576;2023-02-01T09:56:04;4.80;;;1.52;;
44169;SDS011;29836;52.286;9.576;2023-02-01T10:01:18;10.60;;;2.45;;
44169;SDS011;29836;52.286;9.576;2023-02-01T10:03:47;6.38;;;1.58;;
44169;SDS011;29836;52.286;9.576;2023-02-01T10:06:33;8.02;;;2.10;;
44169;SDS011;29836;52.286;9.576;2023-02-01T10:23:43;4.70;;;2.25;;
44169;SDS011;29836;52.286;9.576;2023-02-01T10:26:22;11.20;;;2.28;;
44169;SDS011;29836;52.286;9.576;2023-02-01T10:28:50;8.13;;;2.42;;
44169;SDS011;29836;52.286;9.576;2023-02-01T10:31:18;12.73;;;2.03;;
44169;SDS011;29836;52.286;9.576;2023-02-01T10:33:48;7.82;;;1.65;;
44169;SDS011;29836;52.286;9.576;2023-02-01T10:36:20;6.80;;;1.85;;
44169;SDS011;29836;52.286;9.576;2023-02-01T10:41:18;6.50;;;1.47;;
44169;SDS011;29836;52.286;9.576;2023-02-01T10:43:47;5.68;;;1.35;;
44169;SDS011;29836;52.286;9.576;2023-02-01T10:46:15;3.65;;;1.40;;
44169;SDS011;29836;52.286;9.576;2023-02-01T10:48:41;3.05;;;1.60;;
44169;SDS011;29836;52.286;9.576;2023-02-01T10:51:26;8.20;;;1.65;;
44169;SDS011;29836;52.286;9.576;2023-02-01T10:54:00;5.18;;;1.33;;
44169;SDS011;29836;52.286;9.576;2023-02-01T10:56:37;6.35;;;1.73;;
44169;SDS011;29836;52.286;9.576;2023-02-01T10:59:04;4.78;;;1.65;;
44169;SDS011;29836;52.286;9.576;2023-02-01T11:01:33;8.50;;;2.35;;
44169;SDS011;29836;52.286;9.576;2023-02-01T11:04:03;5.50;;;1.75;;
44169;SDS011;29836;52.286;9.576;2023-02-01T11:06:34;8.07;;;1.92;;
44169;SDS011;29836;52.286;9.576;2023-02-01T11:14:17;8.40;;;2.00;;
44169;SDS011;29836;52.286;9.576;2023-02-01T11:16:52;4.88;;;1.20;;
44169;SDS011;29836;52.286;9.576;2023-02-01T11:19:38;13.43;;;2.13;;
44169;SDS011;29836;52.286;9.576;2023-02-01T11:22:03;4.68;;;1.95;;
44169;SDS011;29836;52.286;9.576;2023-02-01T11:24:34;10.98;;;2.20;;
44169;SDS011;29836;52.286;9.576;2023-02-01T11:27:03;6.35;;;1.60;;
44169;SDS011;29836;52.286;9.576;2023-02-01T11:29:38;5.38;;;2.15;;
44169;SDS011;29836;52.286;9.576;2023-02-01T11:32:07;7.93;;;2.10;;
44169;SDS011;29836;52.286;9.576;2023-02-01T11:34:36;7.88;;;1.55;;
44169;SDS011;29836;52.286;9.576;2023-02-01T11:37:17;11.93;;;2.67;;
44169;SDS011;29836;52.286;9.576;2023-02-01T11:39:58;5.53;;;2.03;;
44169;SDS011;29836;52.286;9.576;2023-02-01T11:42:26;9.35;;;1.90;;
44169;SDS011;29836;52.286;9.576;2023-02-01T11:47:40;8.70;;;1.92;;
44169;SDS011;29836;52.286;9.576;2023-02-01T11:50:17;8.00;;;1.80;;
44169;SDS011;29836;52.286;9.576;2023-02-01T11:58:22;5.13;;;1.50;;
44169;SDS011;29836;52.286;9.576;2023-02-01T12:04:00;5.43;;;2.38;;
44169;SDS011;29836;52.286;9.576;2023-02-01T12:06:48;8.05;;;2.45;;
44169;SDS011;29836;52.286;9.576;2023-02-01T12:12:25;6.32;;;2.35;;
44169;SDS011;29836;52.286;9.576;2023-02-01T12:18:00;8.65;;;1.98;;
44169;SDS011;29836;52.286;9.576;2023-02-01T12:20:41;9.05;;;1.48;;
44169;SDS011;29836;52.286;9.576;2023-02-01T12:31:09;13.43;;;2.95;;
44169;SDS011;29836;52.286;9.576;2023-02-01T12:36:45;6.53;;;2.33;;
44169;SDS011;29836;52.286;9.576;2023-02-01T12:42:07;7.10;;;2.15;;
44169;SDS011;29836;52.286;9.576;2023-02-01T12:44:53;6.70;;;2.10;;
44169;SDS011;29836;52.286;9.576;2023-02-01T12:47:24;6.35;;;2.50;;
44169;SDS011;29836;52.286;9.576;2023-02-01T12:50:03;7.85;;;2.88;;
44169;SDS011;29836;52.286;9.576;2023-02-01T12:52:39;5.28;;;1.55;;
44169;SDS011;29836;52.286;9.576;2023-02-01T12:55:35;7.93;;;1.75;;
44169;SDS011;29836;52.286;9.576;2023-02-01T12:58:04;5.15;;;1.65;;
44169;SDS011;29836;52.286;9.576;2023-02-01T13:00:45;3.25;;;1.27;;
44169;SDS011;29836;52.286;9.576;2023-02-01T13:03:25;3.97;;;1.58;;
44169;SDS011;29836;52.286;9.576;2023-02-01T13:11:34;6.70;;;1.58;;
44169;SDS011;29836;52.286;9.576;2023-02-01T13:14:49;6.45;;;1.42;;
44169;SDS011;29836;52.286;9.576;2023-02-01T13:17:05;1.95;;;1.05;;
44169;SDS011;29836;52.286;9.576;2023-02-01T13:19:46;5.20;;;1.20;;
44169;SDS011;29836;52.286;9.576;2023-02-01T13:22:29;7.63;;;1.83;;
44169;SDS011;29836;52.286;9.576;2023-02-01T13:25:02;6.47;;;1.50;;
44169;SDS011;29836;52.286;9.576;2023-02-01T13:27:34;3.25;;;1.35;;
44169;SDS011;29836;52.286;9.576;2023-02-01T13:30:01;3.03;;;1.40;;
44169;SDS011;29836;52.286;9.576;2023-02-01T13:38:48;5.38;;;1.58;;
44169;SDS011;29836;52.286;9.576;2023-02-01T13:41:54;7.10;;;1.17;;
44169;SDS011;29836;52.286;9.576;2023-02-01T13:46:59;0.85;;;0.57;;
44169;SDS011;29836;52.286;9.576;2023-02-01T13:49:28;0.57;;;0.40;;
44169;SDS011;29836;52.286;9.576;2023-02-01T13:51:58;0.40;;;0.40;;
44169;SDS011;29836;52.286;9.576;2023-02-01T13:54:29;0.45;;;0.45;;
44169;SDS011;29836;52.286;9.576;2023-02-01T13:57:00;0.70;;;0.70;;
44169;SDS011;29836;52.286;9.576;2023-02-01T14:05:12;0.40;;;0.40;;
44169;SDS011;29836;52.286;9.576;2023-02-01T14:13:24;0.50;;;0.50;;
44169;SDS011;29836;52.286;9.576;2023-02-01T14:16:11;0.43;;;0.43;;
44169;SDS011;29836;52.286;9.576;2023-02-01T14:29:21;0.52;;;0.40;;
44169;SDS011;29836;52.286;9.576;2023-02-01T14:34:29;0.60;;;0.57;;
44169;SDS011;29836;52.286;9.576;2023-02-01T14:37:06;2.85;;;1.02;;
44169;SDS011;29836;52.286;9.576;2023-02-01T14:42:38;3.92;;;1.17;;
44169;SDS011;29836;52.286;9.576;2023-02-01T14:47:53;4.13;;;1.05;;
44169;SDS011;29836;52.286;9.576;2023-02-01T14:55:42;3.13;;;1.42;;
44169;SDS011;29836;52.286;9.576;2023-02-01T15:06:55;1.95;;;0.70;;
44169;SDS011;29836;52.286;9.576;2023-02-01T15:09:30;2.42;;;0.98;;
44169;SDS011;29836;52.286;9.576;2023-02-01T15:14:29;5.30;;;1.50;;
44169;SDS011;29836;52.286;9.576;2023-02-01T15:16:58;5.10;;;0.88;;
44169;SDS011;29836;52.286;9.576;2023-02-01T15:19:25;3.63;;;0.95;;
44169;SDS011;29836;52.286;9.576;2023-02-01T15:21:53;5.65;;;1.15;;
44169;SDS011;29836;52.286;9.576;2023-02-01T15:26:48;3.78;;;1.20;;
44169;SDS011;29836;52.286;9.576;2023-02-01T15:29:15;4.13;;;1.70;;
44169;SDS011;29836;52.286;9.576;2023-02-01T15:31:46;2.88;;;1.02;;
44169;SDS011;29836;52.286;9.576;2023-02-01T15:34:14;2.90;;;1.15;;
44169;SDS011;29836;52.286;9.576;2023-02-01T15:36:40;9.32;;;1.67;;
44169;SDS011;29836;52.286;9.576;2023-02-01T15:39:14;2.55;;;0.85;;
44169;SDS011;29836;52.286;9.576;2023-02-01T15:41:45;7.10;;;1.42;;
44169;SDS011;29836;52.286;9.576;2023-02-01T15:44:18;4.13;;;1.20;;
44169;SDS011;29836;52.286;9.576;2023-02-01T15:46:54;2.33;;;1.52;;
44169;SDS011;29836;52.286;9.576;2023-02-01T15:49:27;2.08;;;0.93;;
44169;SDS011;29836;52.286;9.576;2023-02-01T15:51:55;7.47;;;2.55;;
44169;SDS011;29836;52.286;9.576;2023-02-01T15:54:24;1.05;;;0.85;;
44169;SDS011;29836;52.286;9.576;2023-02-01T15:56:56;6.60;;;0.98;;
44169;SDS011;29836;52.286;9.576;2023-02-01T15:59:28;3.45;;;1.33;;
44169;SDS011;29836;52.286;9.576;2023-02-01T16:01:58;3.25;;;1.02;;
44169;SDS011;29836;52.286;9.576;2023-02-01T16:04:24;2.30;;;0.98;;
44169;SDS011;29836;52.286;9.576;2023-02-01T16:06:55;4.93;;;1.40;;
44169;SDS011;29836;52.286;9.576;2023-02-01T16:09:23;9.70;;;1.63;;
44169;SDS011;29836;52.286;9.576;2023-02-01T16:12:00;3.83;;;1.02;;
44169;SDS011;29836;52.286;9.576;2023-02-01T16:14:26;3.17;;;1.02;;
44169;SDS011;29836;52.286;9.576;2023-02-01T16:16:53;6.72;;;1.40;;
44169;SDS011;29836;52.286;9.576;2023-02-01T16:19:20;4.53;;;1.98;;
44169;SDS011;29836;52.286;9.576;2023-02-01T16:21:48;6.72;;;1.77;;
44169;SDS011;29836;52.286;9.576;2023-02-01T16:24:13;5.18;;;1.92;;
44169;SDS011;29836;52.286;9.576;2023-02-01T16:26:39;10.27;;;1.33;;
44169;SDS011;29836;52.286;9.576;2023-02-01T16:29:05;8.95;;;1.60;;
44169;SDS011;29836;52.286;9.576;2023-02-01T16:31:31;4.28;;;1.58;;
44169;SDS011;29836;52.286;9.576;2023-02-01T16:33:59;3.75;;;1.15;;
44169;SDS011;29836;52.286;9.576;2023-02-01T16:36:25;14.18;;;2.38;;
44169;SDS011;29836;52.286;9.576;2023-02-01T16:38:52;7.28;;;1.85;;
44169;SDS011;29836;52.286;9.576;2023-02-01T16:41:19;2.35;;;1.80;;
44169;SDS011;29836;52.286;9.576;2023-02-01T16:43:48;4.13;;;1.52;;
44169;SDS011;29836;52.286;9.576;2023-02-01T16:46:16;6.75;;;1.40;;
44169;SDS011;29836;52.286;9.576;2023-02-01T16:48:54;6.13;;;2.08;;
44169;SDS011;29836;52.286;9.576;2023-02-01T16:51:23;2.97;;;1.17;;
44169;SDS011;29836;52.286;9.576;2023-02-01T16:53:50;3.42;;;1.40;;
44169;SDS011;29836;52.286;9.576;2023-02-01T16:56:17;9.45;;;2.70;;
44169;SDS011;29836;52.286;9.576;2023-02-01T16:58:45;5.43;;;1.35;;
44169;SDS011;29836;52.286;9.576;2023-02-01T17:01:12;3.33;;;1.85;;
44169;SDS011;29836;52.286;9.576;2023-02-01T17:03:39;14.93;;;2.28;;
44169;SDS011;29836;52.286;9.576;2023-02-01T17:06:05;4.00;;;1.30;;
44169;SDS011;29836;52.286;9.576;2023-02-01T17:08:35;5.43;;;1.45;;
44169;SDS011;29836;52.286;9.576;2023-02-01T17:11:04;6.55;;;1.83;;
44169;SDS011;29836;52.286;9.576;2023-02-01T17:13:30;7.45;;;1.48;;
44169;SDS011;29836;52.286;9.576;2023-02-01T17:15:57;9.40;;;1.77;;
44169;SDS011;29836;52.286;9.576;2023-02-01T17:18:26;4.53;;;1.25;;
44169;SDS011;29836;52.286;9.576;2023-02-01T17:20:56;6.00;;;1.83;;
44169;SDS011;29836;52.286;9.576;2023-02-01T17:23:22;6.50;;;1.48;;
44169;SDS011;29836;52.286;9.576;2023-02-01T17:25:48;5.32;;;1.80;;
44169;SDS011;29836;52.286;9.576;2023-02-01T17:28:13;6.57;;;2.30;;
44169;SDS011;29836;52.286;9.576;2023-02-01T17:30:39;4.68;;;2.05;;
44169;SDS011;29836;52.286;9.576;2023-02-01T17:33:09;5.65;;;1.75;;
44169;SDS011;29836;52.286;9.576;2023-02-01T17:35:54;13.45;;;2.53;;
44169;SDS011;29836;52.286;9.576;2023-02-01T17:38:21;13.02;;;2.20;;
44169;SDS011;29836;52.286;9.576;2023-02-01T17:40:48;11.18;;;2.30;;
44169;SDS011;29836;52.286;9.576;2023-02-01T17:43:14;7.53;;;1.70;;
44169;SDS011;29836;52.286;9.576;2023-02-01T17:45:52;9.43;;;2.17;;
44169;SDS011;29836;52.286;9.576;2023-02-01T17:48:29;8.27;;;2.25;;
44169;SDS011;29836;52.286;9.576;2023-02-01T17:50:55;16.50;;;1.88;;
44169;SDS011;29836;52.286;9.576;2023-02-01T17:53:27;11.45;;;2.35;;